MiSS Stacie — WDF5915 — position and weather

sailwx.info

Track history (hours):
 
Tides and Currents Weather Stations Pressure Air Temp Water Temp Dewpoint Dewpoint Depression Visibility Wind Speed Wind Dir Waves Ship Positions

MiSS Stacie

Owner: Crosby Marine Transportation LLC, Golden Meadow, LA. More information available from US FCC via Universal Licensing System and Coast Guard Vessel Documentation Center.

Last reported at 2015-May-27 22:08 UTC. Time now 2015-May-28 07:58 UTC.
Position N 29°34' W 090°31'.

Length 20 m; draft 2 m.

Type: Tug. MMSI: 367468640.

Date/timePositionNaut miles runAvg speedWind from/ knotsBaromVisibWave heightAir tempDewpointWater temp
2015-May-27 22:08N 29°34' W 090°31'4 6.3
2015-May-27 21:33N 29°35' W 090°35'5 5.2
2015-May-27 20:33N 29°36' W 090°41'3 2.7
2015-May-27 19:33N 29°34' W 090°43'3 2.5
2015-May-27 18:33N 29°33' W 090°45'3 3.2
2015-May-27 17:33N 29°32' W 090°49'  
2015-May-24 02:13N 29°32' W 090°51'4 6.6
2015-May-24 01:33N 29°32' W 090°46'5 5.5
2015-May-24 00:33N 29°37' W 090°42'6 6.2
2015-May-23 23:33N 29°35' W 090°36'32 4.5
2015-May-23 16:22N 29°50' W 090°04'1 1.3
2015-May-23 15:33N 29°52' W 090°04'0 0.0
2015-May-23 14:32N 29°52' W 090°04'0 0.0
2015-May-23 13:31N 29°52' W 090°04'0 0.0
2015-May-23 12:33N 29°52' W 090°04'0 0.0
2015-May-23 11:32N 29°52' W 090°04'0 0.0
2015-May-23 10:29N 29°52' W 090°04'0 0.0
2015-May-23 09:32N 29°52' W 090°04'0 0.0
2015-May-23 08:29N 29°52' W 090°04'0 0.0
2015-May-23 07:30N 29°52' W 090°04'0 0.0
2015-May-23 06:32N 29°52' W 090°04'0 0.1
2015-May-23 05:33N 29°51' W 090°04'0 0.0
2015-May-23 04:22N 29°51' W 090°04'0 0.0
2015-May-23 03:23N 29°51' W 090°04'0 0.0
2015-May-23 02:33N 29°51' W 090°04'3 0.1
2015-May-22 02:24N 29°55' W 090°05'0 0.3
2015-May-22 01:28N 29°55' W 090°05'0 0.0
2015-May-22 00:17N 29°55' W 090°05'0 0.0
2015-May-21 23:17N 29°55' W 090°05'3 3.3
2015-May-21 22:18N 29°57' W 090°03'2 2.5
2015-May-21 21:22N 29°57' W 090°00'5 4.4
2015-May-21 20:18N 29°55' W 090°05'0 0.2
2015-May-21 19:18N 29°54' W 090°05'0 0.0
2015-May-21 18:24N 29°54' W 090°05'4 4.2
2015-May-21 17:31N 29°51' W 090°04'2 0.2
2015-May-21 10:33N 29°51' W 090°02'5 4.2
2015-May-21 09:19N 29°55' W 089°58'2 2.9
2015-May-21 08:31N 29°57' W 090°00'5 4.9
2015-May-21 07:33N 29°55' W 090°05'0 0.2
2015-May-21 06:33N 29°54' W 090°05'1 1.0
2015-May-21 05:18N 29°53' W 090°05'2 1.7
2015-May-21 04:22N 29°55' W 090°05'4 3.8
2015-May-21 03:24N 29°57' W 090°02'4 0.3
2015-May-20 13:17N 29°53' W 090°05'4 3.7
2015-May-20 12:11N 29°49' W 090°04'1 0.6
2015-May-20 11:09N 29°50' W 090°03'0 0.0
2015-May-20 08:30N 29°50' W 090°03'0 0.0
2015-May-20 07:17N 29°50' W 090°03'0 0.0
2015-May-20 06:18N 29°50' W 090°03'0 0.0
2015-May-20 05:30N 29°50' W 090°03'5 5.1
2015-May-20 04:25N 29°54' W 089°59'2 2.2
2015-May-20 03:23N 29°56' W 089°60'2 2.3
2015-May-20 02:33N 29°55' W 089°58'0 0.2
2015-May-20 01:32N 29°55' W 089°58'0 0.2
2015-May-20 00:31N 29°55' W 089°59'1 1.2
2015-May-19 23:33N 29°54' W 089°60'5 4.7
2015-May-19 22:33N 29°50' W 090°03'2 2.1
2015-May-19 21:31N 29°48' W 090°04'1 0.0
2015-May-18 01:27N 29°47' W 090°04'0 0.0
2015-May-18 00:26N 29°47' W 090°04'  
Track history (hours):
 
Tides and Currents Weather Stations Pressure Air Temp Water Temp Dewpoint Dewpoint Depression Visibility Wind Speed Wind Dir Waves Ship Positions

MiSS Stacie

Owner: Crosby Marine Transportation LLC, Golden Meadow, LA. More information available from US FCC via Universal Licensing System and Coast Guard Vessel Documentation Center.

Last reported at 2015-May-27 22:08 UTC. Time now 2015-May-28 07:58 UTC.
Position N 29°34' W 090°31'.

Length 20 m; draft 2 m.

Type: Tug. MMSI: 367468640.

Date/timePositionNaut miles runAvg speedWind from/ knotsBaromVisibWave heightAir tempDewpointWater temp
2015-May-27 22:08N 29°34' W 090°31'4 6.3
2015-May-27 21:33N 29°35' W 090°35'5 5.2
2015-May-27 20:33N 29°36' W 090°41'3 2.7
2015-May-27 19:33N 29°34' W 090°43'3 2.5
2015-May-27 18:33N 29°33' W 090°45'3 3.2
2015-May-27 17:33N 29°32' W 090°49'  
2015-May-24 02:13N 29°32' W 090°51'4 6.6
2015-May-24 01:33N 29°32' W 090°46'5 5.5
2015-May-24 00:33N 29°37' W 090°42'6 6.2
2015-May-23 23:33N 29°35' W 090°36'32 4.5
2015-May-23 16:22N 29°50' W 090°04'1 1.3
2015-May-23 15:33N 29°52' W 090°04'0 0.0
2015-May-23 14:32N 29°52' W 090°04'0 0.0
2015-May-23 13:31N 29°52' W 090°04'0 0.0
2015-May-23 12:33N 29°52' W 090°04'0 0.0
2015-May-23 11:32N 29°52' W 090°04'0 0.0
2015-May-23 10:29N 29°52' W 090°04'0 0.0
2015-May-23 09:32N 29°52' W 090°04'0 0.0
2015-May-23 08:29N 29°52' W 090°04'0 0.0
2015-May-23 07:30N 29°52' W 090°04'0 0.0
2015-May-23 06:32N 29°52' W 090°04'0 0.1
2015-May-23 05:33N 29°51' W 090°04'0 0.0
2015-May-23 04:22N 29°51' W 090°04'0 0.0
2015-May-23 03:23N 29°51' W 090°04'0 0.0
2015-May-23 02:33N 29°51' W 090°04'3 0.1
2015-May-22 02:24N 29°55' W 090°05'0 0.3
2015-May-22 01:28N 29°55' W 090°05'0 0.0
2015-May-22 00:17N 29°55' W 090°05'0 0.0
2015-May-21 23:17N 29°55' W 090°05'3 3.3
2015-May-21 22:18N 29°57' W 090°03'2 2.5
2015-May-21 21:22N 29°57' W 090°00'5 4.4
2015-May-21 20:18N 29°55' W 090°05'0 0.2
2015-May-21 19:18N 29°54' W 090°05'0 0.0
2015-May-21 18:24N 29°54' W 090°05'4 4.2
2015-May-21 17:31N 29°51' W 090°04'2 0.2
2015-May-21 10:33N 29°51' W 090°02'5 4.2
2015-May-21 09:19N 29°55' W 089°58'2 2.9
2015-May-21 08:31N 29°57' W 090°00'5 4.9
2015-May-21 07:33N 29°55' W 090°05'0 0.2
2015-May-21 06:33N 29°54' W 090°05'1 1.0
2015-May-21 05:18N 29°53' W 090°05'2 1.7
2015-May-21 04:22N 29°55' W 090°05'4 3.8
2015-May-21 03:24N 29°57' W 090°02'4 0.3
2015-May-20 13:17N 29°53' W 090°05'4 3.7
2015-May-20 12:11N 29°49' W 090°04'1 0.6
2015-May-20 11:09N 29°50' W 090°03'0 0.0
2015-May-20 08:30N 29°50' W 090°03'0 0.0
2015-May-20 07:17N 29°50' W 090°03'0 0.0
2015-May-20 06:18N 29°50' W 090°03'0 0.0
2015-May-20 05:30N 29°50' W 090°03'5 5.1
2015-May-20 04:25N 29°54' W 089°59'2 2.2
2015-May-20 03:23N 29°56' W 089°60'2 2.3
2015-May-20 02:33N 29°55' W 089°58'0 0.2
2015-May-20 01:32N 29°55' W 089°58'0 0.2
2015-May-20 00:31N 29°55' W 089°59'1 1.2
2015-May-19 23:33N 29°54' W 089°60'5 4.7
2015-May-19 22:33N 29°50' W 090°03'2 2.1
2015-May-19 21:31N 29°48' W 090°04'1 0.0
2015-May-18 01:27N 29°47' W 090°04'0 0.0
2015-May-18 00:26N 29°47' W 090°04'  

Dump ship's entire track history